Terminal Aerodrome Forecast
Issued by NWS

Home | Current Version | Previous Version | Text Only | Print | Product List | Glossary On
Versions: 1 2 3 4 5 6 7 8 9 10 11 12 13 14 15 16 17 18 19 20 21 22
000
FTUS43 KLSX 202128 AAA
TAFCPS
TAF AMD
KCPS 202128Z 2021/2118 17007KT P6SM OVC025
     FM210000 15007KT P6SM SCT025 BKN035
     FM210100 16007KT P6SM SCT025
     FM211300 18009KT P6SM FEW150 WS015/23040KT=

USA.gov is the U.S. government's official web portal to all federal, state and local government web resources and services.